createdAt,value
2019-05-12T00:02:15.284Z,95.37
2019-05-12T00:04:48.831Z,94.73
2019-05-12T00:07:20.843Z,94.21
2019-05-12T00:09:52.011Z,94.83
2019-05-12T00:12:23.771Z,95.48
2019-05-12T00:14:54.948Z,94.18
2019-05-12T00:17:28.328Z,95.07
2019-05-12T00:19:59.536Z,94.83
2019-05-12T00:22:38.166Z,93.37
2019-05-12T00:25:10.115Z,94.57
2019-05-12T00:27:48.883Z,95.20
2019-05-12T00:30:40.033Z,95.42
2019-05-12T00:33:11.307Z,96.09
2019-05-12T00:35:43.131Z,96.92
2019-05-12T00:38:14.967Z,97.31
2019-05-12T00:40:47.949Z,98.14
2019-05-12T00:43:19.873Z,98.66
2019-05-12T00:45:51.736Z,99.68
2019-05-12T00:48:23.632Z,100.00
2019-05-12T00:50:55.744Z,100.00
2019-05-12T00:53:37.251Z,100.00
2019-05-12T00:56:00.495Z,100.00
2019-05-12T00:58:31.636Z,100.00
2019-05-12T01:01:04.371Z,100.00
2019-05-12T01:03:38.207Z,100.00
2019-05-12T01:06:09.787Z,100.00
2019-05-12T01:08:41.668Z,100.00
2019-05-12T01:11:13.573Z,100.00
2019-05-12T01:13:45.499Z,100.00
2019-05-12T01:16:18.413Z,100.00
2019-05-12T01:18:50.401Z,100.00
2019-05-12T01:21:22.284Z,100.00
2019-05-12T01:24:00.511Z,100.00
2019-05-12T01:26:28.471Z,100.00
2019-05-12T01:28:59.705Z,100.00
2019-05-12T01:31:33.867Z,100.00
2019-05-12T01:34:05.030Z,100.00
2019-05-12T01:36:38.101Z,100.00
2019-05-12T01:39:09.486Z,100.00
2019-05-12T01:41:41.307Z,100.00
2019-05-12T01:44:12.487Z,100.00
2019-05-12T01:46:44.399Z,100.00
2019-05-12T01:49:15.737Z,100.00
2019-05-12T01:51:47.721Z,100.00
2019-05-12T01:54:19.652Z,100.00
2019-05-12T01:56:51.452Z,100.00
2019-05-12T01:59:23.325Z,100.00
2019-05-12T02:01:55.175Z,100.00
2019-05-12T02:04:28.797Z,100.00
2019-05-12T02:07:02.688Z,100.00
2019-05-12T02:09:35.539Z,100.00
2019-05-12T02:12:08.252Z,100.00
2019-05-12T02:14:40.286Z,100.00
2019-05-12T02:17:12.163Z,100.00
2019-05-12T02:19:43.468Z,100.00
2019-05-12T02:22:15.333Z,100.00
2019-05-12T02:24:47.899Z,100.00
2019-05-12T02:27:19.726Z,100.00
2019-05-12T02:29:50.945Z,100.00
2019-05-12T02:32:25.288Z,100.00
2019-05-12T02:34:56.349Z,100.00
2019-05-12T02:37:28.263Z,100.00
2019-05-12T02:40:00.173Z,100.00
2019-05-12T02:42:34.878Z,100.00
2019-05-12T02:45:06.647Z,100.00
2019-05-12T02:47:38.799Z,100.00
2019-05-12T02:50:14.370Z,100.00
2019-05-12T02:52:45.121Z,100.00
2019-05-12T02:55:17.092Z,100.00
2019-05-12T02:57:50.668Z,100.00
2019-05-12T03:00:24.234Z,100.00
2019-05-12T03:02:58.372Z,100.00
2019-05-12T03:05:31.173Z,100.00
2019-05-12T03:08:05.398Z,100.00
2019-05-12T03:10:37.722Z,100.00
2019-05-12T03:13:09.554Z,100.00
2019-05-12T03:15:44.387Z,100.00
2019-05-12T03:18:15.064Z,100.00
2019-05-12T03:20:46.250Z,100.00
2019-05-12T03:23:19.195Z,100.00
2019-05-12T03:25:54.433Z,100.00
2019-05-12T03:28:25.724Z,100.00
2019-05-12T03:30:58.235Z,100.00
2019-05-12T03:33:40.600Z,100.00
2019-05-12T03:36:08.454Z,100.00
2019-05-12T03:38:36.855Z,100.00
2019-05-12T03:41:08.878Z,100.00
2019-05-12T03:43:40.821Z,100.00
2019-05-12T03:46:15.230Z,100.00
2019-05-12T03:48:45.752Z,100.00
2019-05-12T03:51:16.905Z,100.00
2019-05-12T03:53:48.854Z,100.00
2019-05-12T03:56:20.834Z,100.00
2019-05-12T03:58:54.078Z,100.00
2019-05-12T04:01:26.083Z,100.00
2019-05-12T04:03:58.085Z,100.00
2019-05-12T04:06:30.092Z,100.00
2019-05-12T04:09:04.760Z,100.00
2019-05-12T04:11:35.841Z,100.00
2019-05-12T04:14:08.435Z,100.00
2019-05-12T04:16:40.288Z,100.00
2019-05-12T04:19:14.698Z,100.00
2019-05-12T04:21:45.917Z,100.00
2019-05-12T04:24:17.862Z,100.00
2019-05-12T04:26:49.756Z,99.79
2019-05-12T04:29:24.854Z,99.27
2019-05-12T04:31:55.217Z,98.91
2019-05-12T04:34:27.106Z,98.97
2019-05-12T04:36:59.033Z,99.03
2019-05-12T04:39:30.877Z,98.83
2019-05-12T04:42:05.255Z,98.65
2019-05-12T04:44:35.865Z,98.40
2019-05-12T04:47:07.765Z,98.48
2019-05-12T04:49:41.504Z,98.24
2019-05-12T04:52:15.549Z,98.27
2019-05-12T04:54:47.032Z,97.44
2019-05-12T04:57:21.079Z,97.71
2019-05-12T04:59:54.326Z,96.78
2019-05-12T05:02:26.335Z,96.04
2019-05-12T05:05:00.645Z,95.28
2019-05-12T05:07:35.628Z,93.35
2019-05-12T05:10:07.127Z,91.93
2019-05-12T05:12:39.050Z,91.08
2019-05-12T05:15:14.338Z,91.02
2019-05-12T05:17:44.954Z,90.61
2019-05-12T05:20:16.853Z,89.89
2019-05-12T05:22:48.741Z,88.70
2019-05-12T05:25:20.617Z,88.12
2019-05-12T05:27:53.338Z,87.84
2019-05-12T05:30:24.634Z,88.12
2019-05-12T05:32:55.765Z,88.32
2019-05-12T05:35:28.975Z,88.95
2019-05-12T05:38:01.282Z,89.17
2019-05-12T05:40:35.286Z,89.51
2019-05-12T05:43:18.689Z,88.19
2019-05-12T05:45:40.299Z,87.94
2019-05-12T05:48:13.651Z,87.63
2019-05-12T05:50:48.432Z,86.30
2019-05-12T05:53:20.394Z,86.49
2019-05-12T05:55:56.261Z,86.51
2019-05-12T05:58:28.674Z,86.49
2019-05-12T06:01:03.728Z,85.74
2019-05-12T06:03:35.195Z,85.12
2019-05-12T06:06:12.216Z,84.87
2019-05-12T06:08:39.519Z,84.71
2019-05-12T06:11:14.820Z,84.31
2019-05-12T06:13:44.992Z,84.26
2019-05-12T06:16:20.726Z,83.84
2019-05-12T06:18:50.601Z,83.30
2019-05-12T06:21:24.187Z,81.95
2019-05-12T06:23:55.471Z,81.48
2019-05-12T06:26:32.620Z,80.91
2019-05-12T06:29:00.888Z,81.00
2019-05-12T06:31:33.526Z,80.25
2019-05-12T06:34:18.615Z,79.65
2019-05-12T06:36:41.326Z,78.24
2019-05-12T06:39:18.985Z,77.35
2019-05-12T06:41:46.353Z,76.73
2019-05-12T06:44:19.521Z,76.09
2019-05-12T06:47:10.684Z,75.84
2019-05-12T06:49:37.863Z,74.92
2019-05-12T06:52:14.337Z,74.51
2019-05-12T06:54:51.254Z,73.91
2019-05-12T06:57:27.863Z,74.46
2019-05-12T06:59:55.153Z,73.71
2019-05-12T07:03:28.420Z,73.31
2019-05-12T07:05:55.246Z,72.57
2019-05-12T07:08:44.954Z,72.00
2019-05-12T07:11:18.255Z,71.88
2019-05-12T07:14:02.188Z,70.66
2019-05-12T07:19:40.706Z,69.88
2019-05-12T07:22:44.292Z,69.54
2019-05-12T07:25:13.533Z,68.78
2019-05-12T07:27:53.654Z,69.05
2019-05-12T07:30:31.864Z,68.49
2019-05-12T07:33:04.609Z,67.66
2019-05-12T07:35:40.758Z,67.87
2019-05-12T07:38:21.042Z,68.22
2019-05-12T07:40:53.571Z,67.93
2019-05-12T07:43:29.177Z,67.97
2019-05-12T07:46:06.814Z,69.13
2019-05-12T07:48:35.020Z,68.33
2019-05-12T07:51:07.032Z,67.54
2019-05-12T07:53:38.870Z,67.48
2019-05-12T07:56:19.507Z,67.09
2019-05-12T07:58:54.220Z,66.33
2019-05-12T08:01:24.014Z,64.13
2019-05-12T08:03:59.983Z,64.91
2019-05-12T08:06:34.735Z,62.98
2019-05-12T08:09:05.830Z,61.39
2019-05-12T08:11:39.025Z,62.29
2019-05-12T08:14:13.783Z,61.25
2019-05-12T08:16:45.020Z,64.59
2019-05-12T08:19:23.906Z,64.34
2019-05-12T08:21:51.100Z,61.23
2019-05-12T08:24:23.856Z,62.00
2019-05-12T08:26:59.543Z,62.50
2019-05-12T08:29:30.279Z,62.30
2019-05-12T08:32:03.802Z,61.14
2019-05-12T08:34:35.895Z,59.56
2019-05-12T08:37:18.535Z,57.31
2019-05-12T08:39:53.404Z,57.04
2019-05-12T08:42:24.659Z,57.69
2019-05-12T08:44:56.017Z,57.12
2019-05-12T08:47:35.489Z,57.46
2019-05-12T08:50:06.547Z,55.52
2019-05-12T08:52:41.992Z,55.21
2019-05-12T08:55:16.852Z,56.49
2019-05-12T08:57:49.713Z,55.76
2019-05-12T09:00:39.409Z,55.57
2019-05-12T09:03:10.744Z,54.44
2019-05-12T09:05:57.378Z,54.67
2019-05-12T09:08:29.901Z,53.49
2019-05-12T09:11:03.821Z,52.68
2019-05-12T09:13:35.508Z,52.86
2019-05-12T09:16:09.778Z,53.04
2019-05-12T09:18:47.674Z,51.11
2019-05-12T09:21:31.920Z,53.08
2019-05-12T09:24:04.335Z,51.34
2019-05-12T09:26:38.294Z,51.24
2019-05-12T09:29:14.143Z,51.93
2019-05-12T09:31:50.602Z,51.52
2019-05-12T09:34:27.023Z,50.38
2019-05-12T09:37:03.843Z,50.29
2019-05-12T09:39:42.802Z,50.24
2019-05-12T09:42:14.102Z,49.73
2019-05-12T09:44:48.667Z,51.45
2019-05-12T09:47:27.542Z,51.88
2019-05-12T09:50:09.593Z,51.88
2019-05-12T09:52:54.983Z,49.45
2019-05-12T09:55:26.135Z,49.01
2019-05-12T09:57:58.171Z,50.38
2019-05-12T10:00:35.908Z,47.99
2019-05-12T10:03:08.343Z,48.37
2019-05-12T10:05:41.189Z,45.59
2019-05-12T10:08:13.830Z,45.31
2019-05-12T10:10:47.168Z,45.11
2019-05-12T10:13:20.264Z,43.63
2019-05-12T10:15:53.580Z,45.11
2019-05-12T10:18:25.840Z,44.93
2019-05-12T10:20:58.265Z,45.37
2019-05-12T10:23:29.863Z,44.71
2019-05-12T10:26:09.481Z,45.23
2019-05-12T10:28:36.060Z,43.90
2019-05-12T10:31:10.760Z,42.28
2019-05-12T10:33:43.368Z,43.54
2019-05-12T10:36:15.726Z,42.40
2019-05-12T10:38:47.003Z,41.29
2019-05-12T10:41:19.905Z,41.09
2019-05-12T10:43:56.017Z,42.06
2019-05-12T10:46:28.600Z,41.75
2019-05-12T10:48:59.206Z,43.23
2019-05-12T10:51:31.183Z,41.80
2019-05-12T10:54:12.093Z,42.86
2019-05-12T10:56:36.699Z,42.79
2019-05-12T10:59:07.903Z,41.30
2019-05-12T11:01:47.250Z,41.77
2019-05-12T11:04:14.280Z,40.31
2019-05-12T11:06:48.499Z,38.82
2019-05-12T11:09:21.234Z,37.83
2019-05-12T11:11:54.015Z,37.49
2019-05-12T11:14:30.274Z,36.97
2019-05-12T11:17:02.143Z,37.30
2019-05-12T11:19:34.818Z,38.74
2019-05-12T11:22:06.693Z,37.44
2019-05-12T11:24:38.512Z,38.31
2019-05-12T11:27:13.314Z,38.08
2019-05-12T11:29:49.096Z,35.53
2019-05-12T11:32:17.961Z,33.19
2019-05-12T11:34:50.734Z,33.88
2019-05-12T11:37:23.506Z,33.98
2019-05-12T11:39:55.358Z,33.50
2019-05-12T11:42:27.442Z,35.19
2019-05-12T11:45:08.155Z,35.47
2019-05-12T11:47:41.702Z,35.83
2019-05-12T11:50:14.071Z,35.03
2019-05-12T11:52:50.567Z,36.53
2019-05-12T11:55:29.843Z,36.55
2019-05-12T11:58:00.475Z,36.81
2019-05-12T12:00:39.154Z,36.99
2019-05-12T12:03:13.001Z,38.02
2019-05-12T12:05:44.689Z,38.35
2019-05-12T12:08:19.706Z,38.40
2019-05-12T12:10:59.735Z,37.69
2019-05-12T12:13:33.561Z,38.16
2019-05-12T12:16:06.942Z,38.64
2019-05-12T12:18:46.680Z,38.40
2019-05-12T12:21:19.524Z,37.47
2019-05-12T12:23:53.713Z,37.93
2019-05-12T12:26:30.168Z,36.62
2019-05-12T12:28:59.779Z,36.28
2019-05-12T12:31:48.691Z,36.62
2019-05-12T12:34:25.493Z,36.86
2019-05-12T12:36:58.098Z,35.85
2019-05-12T12:39:29.967Z,33.87
2019-05-12T12:42:06.997Z,34.45
2019-05-12T12:44:38.472Z,33.05
2019-05-12T12:47:17.162Z,33.64
2019-05-12T12:49:49.491Z,33.59
2019-05-12T12:52:24.389Z,32.57
2019-05-12T12:55:05.315Z,33.17
2019-05-12T12:57:33.649Z,31.89
2019-05-12T13:00:31.840Z,32.33
2019-05-12T13:02:55.758Z,31.67
2019-05-12T13:05:29.519Z,31.43
2019-05-12T13:08:04.254Z,31.05
2019-05-12T13:10:40.510Z,29.98
2019-05-12T13:13:10.505Z,29.60
2019-05-12T13:15:44.420Z,28.73
2019-05-12T13:18:24.051Z,27.55
2019-05-12T13:20:54.094Z,27.63
2019-05-12T13:23:40.510Z,28.26
2019-05-12T13:26:08.128Z,27.18
2019-05-12T13:28:39.349Z,27.83
2019-05-12T13:51:55.213Z,29.02
2019-05-12T13:54:29.963Z,29.45
2019-05-12T13:57:03.872Z,28.50
2019-05-12T13:59:35.421Z,28.18
2019-05-12T14:02:07.505Z,28.19
2019-05-12T14:04:39.990Z,27.98
2019-05-12T14:07:17.704Z,27.86
2019-05-12T14:09:45.617Z,28.24
2019-05-12T14:12:17.970Z,27.68
2019-05-12T14:14:49.933Z,28.07
2019-05-12T14:17:23.525Z,27.73
2019-05-12T14:19:55.585Z,27.59
2019-05-12T14:22:27.766Z,26.20
2019-05-12T14:25:02.195Z,26.71
2019-05-12T14:27:33.534Z,26.57
2019-05-12T14:30:10.380Z,26.69
2019-05-12T14:32:40.974Z,27.47
2019-05-12T14:35:13.067Z,27.77
2019-05-12T14:37:45.795Z,27.99
2019-05-12T14:40:21.362Z,27.64
2019-05-12T14:42:54.323Z,27.17
2019-05-12T14:45:29.912Z,27.33
2019-05-12T14:47:59.989Z,27.44
2019-05-12T14:50:33.674Z,27.28
2019-05-12T14:53:05.607Z,26.47
2019-05-12T14:55:38.504Z,24.92
2019-05-12T14:58:17.669Z,25.65
2019-05-12T15:00:44.705Z,24.56
2019-05-12T15:03:16.694Z,24.50
2019-05-12T15:05:48.973Z,24.54
2019-05-12T15:08:21.494Z,24.07
2019-05-12T15:10:54.512Z,24.04
2019-05-12T15:13:26.820Z,24.58
2019-05-12T15:16:00.160Z,24.71
2019-05-12T15:18:32.277Z,24.63
2019-05-12T15:21:04.218Z,23.51
2019-05-12T15:23:37.613Z,24.31
2019-05-12T15:26:14.934Z,24.95
2019-05-12T15:28:43.594Z,24.88
2019-05-12T15:31:15.548Z,24.53
2019-05-12T15:33:47.473Z,24.80
2019-05-12T15:36:19.794Z,25.86
2019-05-12T15:38:55.746Z,26.56
2019-05-12T15:41:25.703Z,26.72
2019-05-12T15:43:58.264Z,26.90
2019-05-12T15:46:33.027Z,26.69
2019-05-12T15:49:04.322Z,26.73
2019-05-12T15:51:39.020Z,27.47
2019-05-12T15:54:11.622Z,27.91
2019-05-12T15:56:43.096Z,28.83
2019-05-12T15:59:17.415Z,28.67
2019-05-12T16:01:48.198Z,29.38
2019-05-12T16:04:20.162Z,29.17
2019-05-12T16:06:57.148Z,29.44
2019-05-12T16:09:26.201Z,29.40
2019-05-12T16:11:58.408Z,29.56
2019-05-12T16:14:30.542Z,29.76
2019-05-12T16:17:06.568Z,30.11
2019-05-12T16:19:39.232Z,30.10
2019-05-12T16:22:10.576Z,30.04
2019-05-12T16:24:43.522Z,30.51
2019-05-12T16:27:15.813Z,30.61
2019-05-12T16:29:50.031Z,31.07
2019-05-12T16:32:26.798Z,30.88
2019-05-12T16:34:55.165Z,30.89
2019-05-12T16:37:31.306Z,30.68
2019-05-12T16:40:00.857Z,31.16
2019-05-12T16:42:33.714Z,31.21
2019-05-12T16:45:09.797Z,31.31
2019-05-12T16:47:38.990Z,31.55
2019-05-12T16:50:15.162Z,31.78
2019-05-12T16:52:45.504Z,31.43
2019-05-12T16:55:16.670Z,31.71
2019-05-12T16:57:52.771Z,31.97
2019-05-12T17:00:24.253Z,31.95
2019-05-12T17:02:58.055Z,31.48
2019-05-12T17:05:30.082Z,31.34
2019-05-12T17:08:04.180Z,31.35
2019-05-12T17:10:38.512Z,31.78
2019-05-12T17:13:13.332Z,32.48
2019-05-12T17:15:43.404Z,33.12
2019-05-12T17:18:17.504Z,33.69
2019-05-12T17:20:51.101Z,33.22
2019-05-12T17:23:24.670Z,34.60
2019-05-12T17:25:57.064Z,34.45
2019-05-12T17:28:29.081Z,34.56
2019-05-12T17:31:03.675Z,34.76
2019-05-12T17:33:35.444Z,34.53
2019-05-12T17:36:12.033Z,34.24
2019-05-12T17:38:40.414Z,34.49
2019-05-12T17:41:15.422Z,34.69
2019-05-12T17:43:52.032Z,35.08
2019-05-12T17:46:18.440Z,35.04
2019-05-12T17:48:50.028Z,34.08
2019-05-12T17:51:26.727Z,34.88
2019-05-12T17:53:56.001Z,34.33
2019-05-12T17:56:34.218Z,34.74
2019-05-12T17:59:04.331Z,34.84
2019-05-12T18:01:36.686Z,35.16
2019-05-12T18:04:09.011Z,34.92
2019-05-12T18:06:41.220Z,35.60
2019-05-12T18:09:15.790Z,35.35
2019-05-12T18:11:46.087Z,35.54
2019-05-12T18:14:19.121Z,35.65
2019-05-12T18:16:53.685Z,35.80
2019-05-12T18:19:24.613Z,35.92
2019-05-12T18:22:03.257Z,36.21
2019-05-12T18:24:29.830Z,36.75
2019-05-12T18:27:05.032Z,36.41
2019-05-12T18:29:34.040Z,36.72
2019-05-12T18:32:08.300Z,36.67
2019-05-12T18:34:39.130Z,36.57
2019-05-12T18:37:13.435Z,37.03
2019-05-12T18:39:44.457Z,37.46
2019-05-12T18:42:15.743Z,37.66
2019-05-12T18:44:46.920Z,38.27
2019-05-12T18:47:23.436Z,38.49
2019-05-12T18:49:53.819Z,38.86
2019-05-12T18:52:29.359Z,39.14
2019-05-12T18:54:58.066Z,39.57
2019-05-12T18:57:30.031Z,39.60
2019-05-12T19:00:04.907Z,39.97
2019-05-12T19:02:36.063Z,40.26
2019-05-12T19:05:12.858Z,40.77
2019-05-12T19:07:43.884Z,41.07
2019-05-12T19:10:16.439Z,40.93
2019-05-12T19:12:51.694Z,41.35
2019-05-12T19:15:22.102Z,41.55
2019-05-12T19:17:54.372Z,41.74
2019-05-12T19:20:26.347Z,41.75
2019-05-12T19:23:00.207Z,42.29
2019-05-12T19:25:35.788Z,42.57
2019-05-12T19:28:10.380Z,42.76
2019-05-12T19:30:40.527Z,42.90
2019-05-12T19:33:13.632Z,43.00
2019-05-12T19:35:50.362Z,43.33
2019-05-12T19:38:19.556Z,43.48
2019-05-12T19:40:56.323Z,43.42
2019-05-12T19:43:25.282Z,43.49
2019-05-12T19:46:03.210Z,43.48
2019-05-12T19:48:35.170Z,43.15
2019-05-12T19:51:20.334Z,42.70
2019-05-12T19:53:38.564Z,42.95
2019-05-12T19:56:09.925Z,43.20
2019-05-12T19:58:43.822Z,43.07
2019-05-12T20:01:15.711Z,43.35
2019-05-12T20:03:50.109Z,43.70
2019-05-12T20:06:20.534Z,43.76
2019-05-12T20:08:55.797Z,44.15
2019-05-12T20:11:29.380Z,44.36
2019-05-12T20:13:58.250Z,44.87
2019-05-12T20:16:30.686Z,45.29
2019-05-12T20:19:04.287Z,45.41
2019-05-12T20:21:35.786Z,45.44
2019-05-12T20:24:07.020Z,45.19
2019-05-12T20:26:40.163Z,45.34
2019-05-12T20:29:13.682Z,45.28
2019-05-12T20:31:50.931Z,45.42
2019-05-12T20:34:24.471Z,45.23
2019-05-12T20:36:59.079Z,45.11
2019-05-12T20:39:28.186Z,45.19
2019-05-12T20:42:01.240Z,45.08
2019-05-12T20:44:34.456Z,45.13
2019-05-12T20:47:06.848Z,45.07
2019-05-12T20:49:42.909Z,45.16
2019-05-12T20:52:14.454Z,45.03
2019-05-12T20:54:49.238Z,44.61
2019-05-12T20:57:23.615Z,44.30
2019-05-12T20:59:58.234Z,44.73
2019-05-12T21:02:27.964Z,44.39
2019-05-12T21:05:01.316Z,44.87
2019-05-12T21:07:33.852Z,45.01
2019-05-12T21:10:06.269Z,44.62
2019-05-12T21:12:40.173Z,44.67
2019-05-12T21:15:17.392Z,44.92
2019-05-12T21:17:52.146Z,44.92
2019-05-12T21:20:19.131Z,45.00
2019-05-12T21:22:51.067Z,45.30
2019-05-12T21:25:23.383Z,45.79
2019-05-12T21:28:02.539Z,46.12
2019-05-12T21:30:29.046Z,46.14
2019-05-12T21:33:01.578Z,46.38
2019-05-12T21:35:40.871Z,46.20
2019-05-12T21:38:07.153Z,46.63
2019-05-12T21:40:40.017Z,46.71
2019-05-12T21:43:13.571Z,47.23
2019-05-12T21:45:45.601Z,47.79
2019-05-12T21:48:23.621Z,48.02
2019-05-12T21:50:49.842Z,48.51
2019-05-12T21:53:23.671Z,49.11
2019-05-12T21:56:03.828Z,49.22
2019-05-12T21:58:28.057Z,49.42
2019-05-12T22:01:07.410Z,49.48
2019-05-12T22:03:37.846Z,49.96
2019-05-12T22:06:19.110Z,50.19
2019-05-12T22:08:44.240Z,50.73
2019-05-12T22:11:16.273Z,51.23
2019-05-12T22:13:58.175Z,51.51
2019-05-12T22:16:23.590Z,51.69
2019-05-12T22:18:59.297Z,51.49
2019-05-12T22:21:29.104Z,51.51
2019-05-12T22:24:01.002Z,51.67
2019-05-12T22:26:39.691Z,52.38
2019-05-12T22:29:05.887Z,52.60
2019-05-12T22:31:38.776Z,52.88
2019-05-12T22:34:11.237Z,53.24
2019-05-12T22:36:45.519Z,53.12
2019-05-12T22:39:17.042Z,53.61
2019-05-12T22:41:48.858Z,53.85
2019-05-12T22:44:22.268Z,53.84
2019-05-12T22:46:54.353Z,53.49
2019-05-12T22:49:26.299Z,54.01
2019-05-12T22:52:02.706Z,54.22
2019-05-12T22:54:33.566Z,54.40
2019-05-12T22:57:04.578Z,54.97
2019-05-12T22:59:40.475Z,54.93
2019-05-12T23:02:09.949Z,55.22
2019-05-12T23:04:43.883Z,55.46
2019-05-12T23:07:19.047Z,55.51
2019-05-12T23:09:49.020Z,55.65
2019-05-12T23:12:20.921Z,55.53
2019-05-12T23:14:55.371Z,55.58
2019-05-12T23:17:25.626Z,55.65
2019-05-12T23:19:57.427Z,55.69
2019-05-12T23:22:34.916Z,55.81
2019-05-12T23:25:03.933Z,56.17
2019-05-12T23:27:35.262Z,56.26
2019-05-12T23:30:11.191Z,56.06
2019-05-12T23:32:42.956Z,55.94
2019-05-12T23:35:15.124Z,55.85
2019-05-12T23:37:47.037Z,55.90
2019-05-12T23:40:18.186Z,56.40
2019-05-12T23:42:50.000Z,56.65
2019-05-12T23:45:24.217Z,56.79
2019-05-12T23:47:55.348Z,56.66
2019-05-12T23:50:27.130Z,57.01
2019-05-12T23:52:59.044Z,57.45
2019-05-12T23:55:30.921Z,57.64
2019-05-12T23:58:04.206Z,57.71
